Terminal Aerodrome Forecast
Issued by NWS

Home | Current Version | Previous Version | Text Only | Print | Product List | Glossary On
Versions: 1 2 3 4 5 6 7 8 9 10 11 12 13 14 15 16
000
FTUS43 KAPX 240520
TAFPLN
TAF
KPLN 240520Z 2406/2506 VRB03KT P6SM OVC180
     FM240700 19005KT P6SM VCSH BKN050 OVC180
     FM241400 20009G15KT P6SM BKN050
     FM242100 20010KT P6SM SHRA BKN040
     FM250400 25007KT P6SM VCSH BKN040=

USA.gov is the U.S. government's official web portal to all federal, state and local government web resources and services.